Terminal Aerodrome Forecast
Issued by NWS

Home | Current Version | Previous Version | Text Only | Print | Product List | Glossary On
Versions: 1 2 3 4 5 6 7 8 9 10 11 12 13 14 15 16 17
000
FTUS42 KGSP 061734
TAFHKY
TAF
KHKY 061734Z 0618/0718 34004KT 3SM -RA BR BKN004 OVC008
      TEMPO 0618/0621 2SM BR SCT004 OVC008
     FM062100 01003KT 6SM BR BKN008
     FM070400 27003KT 1/2SM FG OVC003
     FM071400 VRB03KT P6SM SCT250=

USA.gov is the U.S. government's official web portal to all federal, state and local government web resources and services.